createdAt,value
2018-08-27T00:01:37.399Z,100981.19
2018-08-27T00:04:05.234Z,100990.41
2018-08-27T00:06:32.905Z,100987.38
2018-08-27T00:09:01.159Z,100971.62
2018-08-27T00:11:29.245Z,100951.86
2018-08-27T00:13:57.333Z,100938.69
2018-08-27T00:16:25.298Z,100924.20
2018-08-27T00:18:52.913Z,100915.03
2018-08-27T00:21:20.579Z,100914.59
2018-08-27T00:23:48.416Z,100913.27
2018-08-27T00:26:16.369Z,100919.95
2018-08-27T00:28:44.039Z,100919.51
2018-08-27T00:31:11.894Z,100909.02
2018-08-27T00:33:40.086Z,100909.02
2018-08-27T00:36:08.034Z,100907.70
2018-08-27T00:38:35.691Z,100904.19
2018-08-27T00:41:03.654Z,100907.30
2018-08-27T00:43:31.577Z,100902.52
2018-08-27T00:45:59.257Z,100897.26
2018-08-27T00:48:27.145Z,100899.94
2018-08-27T00:50:54.784Z,100896.38
2018-08-27T00:53:23.040Z,100899.89
2018-08-27T00:55:50.992Z,100894.23
2018-08-27T00:58:18.903Z,100893.83
2018-08-27T01:00:46.598Z,100889.88
2018-08-27T01:03:14.232Z,100890.37
2018-08-27T01:05:42.099Z,100886.37
2018-08-27T01:08:09.733Z,100881.55
2018-08-27T01:10:37.641Z,100871.48
2018-08-27T01:13:05.357Z,100868.45
2018-08-27T01:15:33.021Z,100860.61
2018-08-27T01:18:00.694Z,100860.61
2018-08-27T01:20:28.618Z,100864.55
2018-08-27T01:22:56.280Z,100856.17
2018-08-27T01:25:23.975Z,100842.17
2018-08-27T01:27:51.686Z,100839.11
2018-08-27T01:30:19.904Z,100848.33
2018-08-27T01:32:47.594Z,100842.66
2018-08-27T01:35:15.861Z,100846.17
2018-08-27T01:37:43.530Z,100855.83
2018-08-27T01:40:11.491Z,100851.88
2018-08-27T01:42:39.833Z,100862.41
2018-08-27T01:45:07.710Z,100865.05
2018-08-27T01:47:35.355Z,100866.84
2018-08-27T01:50:02.994Z,100863.28
2018-08-27T01:52:30.983Z,100861.09
2018-08-27T01:54:58.836Z,100852.80
2018-08-27T01:57:26.492Z,100853.72
2018-08-27T01:59:54.514Z,100858.06
2018-08-27T02:02:22.109Z,100853.24
2018-08-27T02:04:50.093Z,100858.06
2018-08-27T02:07:18.079Z,100848.45
2018-08-27T02:09:45.706Z,100849.30
2018-08-27T02:12:13.636Z,100849.77
2018-08-27T02:14:41.312Z,100851.09
2018-08-27T02:17:08.962Z,100844.95
2018-08-27T02:19:36.929Z,100844.50
2018-08-27T02:22:04.550Z,100834.89
2018-08-27T02:24:32.187Z,100838.76
2018-08-27T02:26:59.836Z,100833.58
2018-08-27T02:29:27.842Z,100828.30
2018-08-27T02:31:55.739Z,100834.06
2018-08-27T02:34:23.644Z,100822.66
2018-08-27T02:36:51.570Z,100821.42
2018-08-27T02:39:19.646Z,100813.52
2018-08-27T02:41:47.264Z,100810.41
2018-08-27T02:44:15.244Z,100805.15
2018-08-27T02:46:42.910Z,100798.56
2018-08-27T02:49:11.074Z,100796.85
2018-08-27T02:51:39.021Z,100789.00
2018-08-27T02:54:06.697Z,100786.37
2018-08-27T02:56:34.337Z,100778.47
2018-08-27T02:59:02.069Z,100775.44
2018-08-27T03:01:29.732Z,100775.94
2018-08-27T03:03:57.704Z,100768.03
2018-08-27T03:06:25.337Z,100762.77
2018-08-27T03:08:53.023Z,100761.41
2018-08-27T03:11:21.027Z,100751.74
2018-08-27T03:13:49.025Z,100746.13
2018-08-27T03:16:16.953Z,100733.41
2018-08-27T03:18:44.633Z,100718.48
2018-08-27T03:21:12.522Z,100714.98
2018-08-27T03:23:40.405Z,100716.35
2018-08-27T03:26:08.038Z,100707.61
2018-08-27T03:28:36.275Z,100708.45
2018-08-27T03:31:03.982Z,100708.93
2018-08-27T03:33:31.982Z,100697.13
2018-08-27T03:35:59.936Z,100687.52
2018-08-27T03:38:28.312Z,100686.20
2018-08-27T03:40:56.641Z,100685.34
2018-08-27T03:43:24.820Z,100672.57
2018-08-27T03:45:52.491Z,100674.81
2018-08-27T03:48:20.146Z,100667.83
2018-08-27T03:50:48.180Z,100662.17
2018-08-27T03:53:15.869Z,100658.72
2018-08-27T03:55:43.552Z,100660.91
2018-08-27T03:58:11.275Z,100655.16
2018-08-27T04:00:39.268Z,100662.66
2018-08-27T04:03:07.176Z,100648.19
2018-08-27T04:05:35.112Z,100635.03
2018-08-27T04:08:03.117Z,100643.84
2018-08-27T04:10:30.745Z,100635.95
2018-08-27T04:12:58.919Z,100635.55
2018-08-27T04:15:26.572Z,100632.50
2018-08-27T04:17:54.256Z,100633.81
2018-08-27T04:20:22.293Z,100627.23
2018-08-27T04:22:49.893Z,100629.87
2018-08-27T04:25:18.017Z,100625.52
2018-08-27T04:27:45.654Z,100622.89
2018-08-27T04:30:13.337Z,100618.55
2018-08-27T04:32:41.643Z,100617.28
2018-08-27T04:35:09.326Z,100605.00
2018-08-27T04:37:36.971Z,100610.31
2018-08-27T04:40:05.355Z,100614.20
2018-08-27T04:42:33.033Z,100607.63
2018-08-27T04:45:00.703Z,100609.87
2018-08-27T04:47:28.410Z,100608.94
2018-08-27T04:49:56.331Z,100602.41
2018-08-27T04:52:24.004Z,100601.09
2018-08-27T04:54:51.969Z,100602.80
2018-08-27T04:57:19.896Z,100595.83
2018-08-27T04:59:51.150Z,100606.36
2018-08-27T05:02:19.161Z,100599.34
2018-08-27T05:04:46.821Z,100597.16
2018-08-27T05:07:14.831Z,100597.16
2018-08-27T05:09:42.492Z,100593.16
2018-08-27T05:12:10.399Z,100601.44
2018-08-27T05:14:38.025Z,100601.44
2018-08-27T05:17:06.015Z,100594.42
2018-08-27T05:19:33.671Z,100595.73
2018-08-27T05:22:01.536Z,100595.25
2018-08-27T05:24:29.195Z,100593.98
2018-08-27T05:26:58.024Z,100589.99
2018-08-27T05:29:26.193Z,100597.05
2018-08-27T05:31:53.861Z,100599.20
2018-08-27T05:34:21.545Z,100600.91
2018-08-27T05:36:49.505Z,100593.09
2018-08-27T05:39:17.153Z,100585.55
2018-08-27T05:41:45.373Z,100584.67
2018-08-27T05:44:13.051Z,100585.06
2018-08-27T05:46:40.745Z,100590.81
2018-08-27T05:49:08.413Z,100583.80
2018-08-27T05:51:36.041Z,100575.91
2018-08-27T05:54:03.995Z,100577.17
2018-08-27T05:56:31.981Z,100581.07
2018-08-27T05:58:59.640Z,100577.13
2018-08-27T06:01:27.331Z,100576.68
2018-08-27T06:03:55.532Z,100580.58
2018-08-27T06:06:24.559Z,100587.94
2018-08-27T06:08:52.268Z,100583.55
2018-08-27T06:11:19.930Z,100583.60
2018-08-27T06:13:47.846Z,100582.28
2018-08-27T06:16:15.642Z,100571.22
2018-08-27T06:18:43.598Z,100572.54
2018-08-27T06:21:11.672Z,100570.39
2018-08-27T06:23:39.541Z,100566.49
2018-08-27T06:26:07.501Z,100566.49
2018-08-27T06:28:35.666Z,100562.48
2018-08-27T06:31:03.638Z,100559.37
2018-08-27T06:33:31.286Z,100563.27
2018-08-27T06:35:59.202Z,100564.98
2018-08-27T06:38:26.852Z,100558.87
2018-08-27T06:40:54.526Z,100560.98
2018-08-27T06:43:22.226Z,100554.88
2018-08-27T06:45:50.132Z,100560.06
2018-08-27T06:48:18.138Z,100565.27
2018-08-27T06:50:46.046Z,100560.44
2018-08-27T06:53:13.988Z,100552.59
2018-08-27T06:55:41.693Z,100560.48
2018-08-27T06:58:09.361Z,100562.70
2018-08-27T07:00:37.266Z,100551.22
2018-08-27T07:03:04.957Z,100544.55
2018-08-27T07:05:32.917Z,100549.27
2018-08-27T07:08:00.604Z,100548.63
2018-08-27T07:10:28.281Z,100545.41
2018-08-27T07:12:56.186Z,100546.62
2018-08-27T07:15:24.109Z,100542.66
2018-08-27T07:17:52.454Z,100543.11
2018-08-27T07:20:20.192Z,100540.14
2018-08-27T07:22:47.862Z,100549.41
2018-08-27T07:25:15.502Z,100552.38
2018-08-27T07:27:43.461Z,100554.91
2018-08-27T07:30:11.150Z,100554.17
2018-08-27T07:32:39.193Z,100559.11
2018-08-27T07:35:07.144Z,100558.68
2018-08-27T07:37:34.812Z,100561.40
2018-08-27T07:40:02.571Z,100564.03
2018-08-27T07:42:30.701Z,100559.27
2018-08-27T07:44:58.362Z,100561.50
2018-08-27T07:47:26.194Z,100563.22
2018-08-27T07:49:54.179Z,100555.37
2018-08-27T07:52:21.865Z,100561.50
2018-08-27T07:54:49.545Z,100560.58
2018-08-27T07:57:17.477Z,100564.92
2018-08-27T07:59:45.753Z,100562.83
2018-08-27T08:02:13.720Z,100562.43
2018-08-27T08:04:41.525Z,100564.24
2018-08-27T08:07:09.547Z,100567.27
2018-08-27T08:09:37.267Z,100569.02
2018-08-27T08:12:05.397Z,100578.67
2018-08-27T08:14:33.093Z,100577.36
2018-08-27T08:17:01.129Z,100576.04
2018-08-27T08:19:29.072Z,100585.30
2018-08-27T08:21:56.725Z,100584.38
2018-08-27T08:24:24.381Z,100595.78
2018-08-27T08:26:52.042Z,100595.00
2018-08-27T08:29:19.734Z,100585.36
2018-08-27T08:31:47.387Z,100584.47
2018-08-27T08:34:15.098Z,100599.84
2018-08-27T08:36:42.782Z,100597.20
2018-08-27T08:39:10.673Z,100598.52
2018-08-27T08:41:38.722Z,100591.94
2018-08-27T08:44:06.387Z,100602.89
2018-08-27T08:46:34.016Z,100595.34
2018-08-27T08:49:01.687Z,100602.76
2018-08-27T08:51:29.621Z,100610.16
2018-08-27T08:53:57.305Z,100611.88
2018-08-27T08:56:25.408Z,100608.31
2018-08-27T08:58:53.364Z,100610.45
2018-08-27T09:01:21.718Z,100609.63
2018-08-27T09:03:49.328Z,100618.45
2018-08-27T09:06:17.010Z,100628.20
2018-08-27T09:08:44.724Z,100620.80
2018-08-27T09:11:12.415Z,100626.11
2018-08-27T09:13:40.089Z,100628.80
2018-08-27T09:16:07.817Z,100626.16
2018-08-27T09:18:35.567Z,100635.80
2018-08-27T09:21:03.642Z,100636.09
2018-08-27T09:23:31.728Z,100635.47
2018-08-27T09:25:59.653Z,100636.55
2018-08-27T09:28:27.361Z,100629.27
2018-08-27T09:30:55.052Z,100630.14
2018-08-27T09:33:22.742Z,100629.22
2018-08-27T09:35:50.486Z,100622.97
2018-08-27T09:38:18.146Z,100626.28
2018-08-27T09:40:46.381Z,100632.94
2018-08-27T09:43:14.038Z,100622.32
2018-08-27T09:45:41.638Z,100625.43
2018-08-27T09:48:09.585Z,100633.00
2018-08-27T09:50:37.500Z,100629.05
2018-08-27T09:53:05.441Z,100624.95
2018-08-27T09:55:33.420Z,100628.80
2018-08-27T09:58:01.096Z,100633.52
2018-08-27T10:00:34.477Z,100634.61
2018-08-27T10:03:02.616Z,100632.06
2018-08-27T10:05:30.576Z,100639.05
2018-08-27T10:07:58.606Z,100636.83
2018-08-27T10:10:26.286Z,100636.13
2018-08-27T10:12:54.697Z,100631.08
2018-08-27T10:15:22.784Z,100631.75
2018-08-27T10:17:50.846Z,100633.95
2018-08-27T10:20:19.167Z,100647.05
2018-08-27T10:22:46.866Z,100648.26
2018-08-27T10:25:14.796Z,100660.13
2018-08-27T10:27:43.074Z,100651.11
2018-08-27T10:30:11.694Z,100651.89
2018-08-27T10:32:39.611Z,100641.28
2018-08-27T10:35:07.517Z,100637.33
2018-08-27T10:37:35.626Z,100636.94
2018-08-27T10:40:03.635Z,100636.02
2018-08-27T10:42:31.346Z,100635.90
2018-08-27T10:44:59.852Z,100639.59
2018-08-27T10:47:28.465Z,100639.30
2018-08-27T10:49:56.665Z,100638.40
2018-08-27T10:52:24.618Z,100637.41
2018-08-27T10:54:52.352Z,100647.91
2018-08-27T10:57:20.064Z,100644.55
2018-08-27T10:59:48.066Z,100646.20
2018-08-27T11:02:15.984Z,100651.73
2018-08-27T11:04:43.665Z,100643.87
2018-08-27T11:07:11.461Z,100642.11
2018-08-27T11:09:39.677Z,100647.27
2018-08-27T11:12:08.112Z,100648.36
2018-08-27T11:14:36.065Z,100652.80
2018-08-27T11:17:04.250Z,100644.55
2018-08-27T11:19:31.945Z,100652.61
2018-08-27T11:21:59.563Z,100658.01
2018-08-27T11:24:27.773Z,100669.46
2018-08-27T11:26:56.513Z,100673.11
2018-08-27T11:29:24.458Z,100727.56
2018-08-27T11:31:52.090Z,100721.61
2018-08-27T11:34:20.033Z,100716.45
2018-08-27T11:36:47.708Z,100721.28
2018-08-27T11:39:15.742Z,100714.09
2018-08-27T11:41:43.957Z,100720.46
2018-08-27T11:44:11.659Z,100723.88
2018-08-27T11:46:39.298Z,100725.25
2018-08-27T11:49:07.393Z,100727.61
2018-08-27T11:51:35.291Z,100720.69
2018-08-27T11:54:03.022Z,100718.70
2018-08-27T11:56:30.814Z,100726.22
2018-08-27T11:58:58.479Z,100724.50
2018-08-27T12:01:27.578Z,100727.64
2018-08-27T12:03:55.265Z,100730.81
2018-08-27T12:06:23.169Z,100733.45
2018-08-27T12:08:50.880Z,100737.80
2018-08-27T12:11:19.109Z,100734.52
2018-08-27T12:13:46.977Z,100732.16
2018-08-27T12:16:14.642Z,100734.55
2018-08-27T12:18:42.276Z,100739.59
2018-08-27T12:21:09.956Z,100750.91
2018-08-27T12:23:38.008Z,100746.13
2018-08-27T12:26:05.666Z,100762.41
2018-08-27T12:28:33.327Z,100762.52
2018-08-27T12:31:01.887Z,100766.91
2018-08-27T12:33:29.533Z,100770.32
2018-08-27T12:35:57.508Z,100766.31
2018-08-27T12:38:25.188Z,100768.00
2018-08-27T12:40:52.843Z,100777.96
2018-08-27T12:43:20.776Z,100783.23
2018-08-27T12:45:48.777Z,100791.09
2018-08-27T12:48:16.488Z,100786.09
2018-08-27T12:50:44.637Z,100792.16
2018-08-27T12:53:12.287Z,100790.84
2018-08-27T12:55:39.899Z,100791.09
2018-08-27T12:58:07.557Z,100790.03
2018-08-27T13:00:35.168Z,100786.69
2018-08-27T13:03:02.950Z,100800.29
2018-08-27T13:05:30.655Z,100812.42
2018-08-27T13:07:58.425Z,100826.73
2018-08-27T13:10:26.669Z,100821.37
2018-08-27T13:12:54.345Z,100834.89
2018-08-27T13:15:22.602Z,100821.66
2018-08-27T13:17:50.790Z,100822.08
2018-08-27T13:20:18.418Z,100830.78
2018-08-27T13:22:46.976Z,100827.22
2018-08-27T13:25:14.885Z,100827.75
2018-08-27T13:27:42.904Z,100831.36
2018-08-27T13:30:10.802Z,100836.84
2018-08-27T13:32:38.555Z,100841.83
2018-08-27T13:35:06.552Z,100847.64
2018-08-27T13:37:34.161Z,100844.61
2018-08-27T13:40:02.220Z,100846.42
2018-08-27T13:42:30.454Z,100849.54
2018-08-27T13:44:58.544Z,100841.15
2018-08-27T13:47:26.521Z,100845.88
2018-08-27T13:49:54.241Z,100850.91
2018-08-27T13:52:22.021Z,100858.52
2018-08-27T13:54:50.277Z,100852.11
2018-08-27T13:57:17.903Z,100865.45
2018-08-27T13:59:45.994Z,100866.22
2018-08-27T14:02:14.192Z,100862.92
2018-08-27T14:04:42.148Z,100855.91
2018-08-27T14:07:10.000Z,100861.33
2018-08-27T14:09:37.709Z,100863.88
2018-08-27T14:12:05.939Z,100864.63
2018-08-27T14:14:33.621Z,100866.16
2018-08-27T14:17:01.687Z,100870.28
2018-08-27T14:19:30.038Z,100874.39
2018-08-27T14:21:58.069Z,100872.23
2018-08-27T14:24:25.942Z,100881.08
2018-08-27T14:26:53.871Z,100878.35
2018-08-27T14:29:21.521Z,100886.80
2018-08-27T14:31:49.563Z,100891.73
2018-08-27T14:34:17.170Z,100897.93
2018-08-27T14:36:45.173Z,100900.03
2018-08-27T14:39:12.884Z,100904.05
2018-08-27T14:41:41.514Z,100907.16
2018-08-27T14:44:09.423Z,100924.75
2018-08-27T14:46:37.225Z,100917.71
2018-08-27T14:49:04.837Z,100933.35
2018-08-27T14:51:32.573Z,100940.77
2018-08-27T14:54:00.514Z,100936.15
2018-08-27T14:56:28.706Z,100941.91
2018-08-27T14:58:56.361Z,100944.48
2018-08-27T15:01:24.029Z,100940.52
2018-08-27T15:03:51.697Z,100943.13
2018-08-27T15:06:19.377Z,100947.38
2018-08-27T15:08:47.404Z,100955.39
2018-08-27T15:11:15.306Z,100940.52
2018-08-27T15:13:43.390Z,100935.87
2018-08-27T15:16:11.083Z,100943.84
2018-08-27T15:18:39.013Z,100947.17
2018-08-27T15:21:06.724Z,100947.45
2018-08-27T15:23:34.715Z,100960.06
2018-08-27T15:26:02.614Z,100955.13
2018-08-27T15:28:30.373Z,100963.61
2018-08-27T15:30:58.017Z,100965.20
2018-08-27T15:33:26.616Z,100971.11
2018-08-27T15:35:54.586Z,100982.91
2018-08-27T15:38:22.535Z,100980.84
2018-08-27T15:40:50.218Z,100980.22
2018-08-27T15:43:17.835Z,100996.93
2018-08-27T15:45:51.574Z,100993.91
2018-08-27T15:48:19.515Z,100990.48
2018-08-27T15:50:47.318Z,100997.18
2018-08-27T15:53:15.203Z,100996.59
2018-08-27T15:55:43.109Z,100999.64
2018-08-27T15:58:10.726Z,101011.22
2018-08-27T16:00:38.490Z,101016.30
2018-08-27T16:03:06.472Z,101029.98
2018-08-27T16:05:34.232Z,101024.91
2018-08-27T16:08:01.833Z,101021.99
2018-08-27T16:10:29.447Z,101031.12
2018-08-27T16:12:57.161Z,101027.59
2018-08-27T16:15:25.539Z,101029.30
2018-08-27T16:17:53.534Z,101034.78
2018-08-27T16:20:21.472Z,101046.63
2018-08-27T16:22:49.156Z,101051.03
2018-08-27T16:25:17.147Z,101051.48
2018-08-27T16:27:45.116Z,101058.86
2018-08-27T16:30:13.202Z,101065.33
2018-08-27T16:32:41.322Z,101067.69
2018-08-27T16:35:09.546Z,101064.45
2018-08-27T16:37:37.541Z,101072.86
2018-08-27T16:40:06.013Z,101065.16
2018-08-27T16:42:34.242Z,101066.00
2018-08-27T16:45:02.582Z,101062.53
2018-08-27T16:47:30.810Z,101072.77
2018-08-27T16:49:58.458Z,101068.52
2018-08-27T16:52:26.427Z,101084.13
2018-08-27T16:54:54.291Z,101088.59
2018-08-27T16:57:22.244Z,101090.84
2018-08-27T16:59:49.876Z,101094.37
2018-08-27T17:02:17.582Z,101093.53
2018-08-27T17:04:45.290Z,101098.52
2018-08-27T17:07:13.329Z,101096.09
2018-08-27T17:09:41.002Z,101094.42
2018-08-27T17:12:08.623Z,101100.48
2018-08-27T17:14:36.854Z,101104.15
2018-08-27T17:17:04.593Z,101108.45
2018-08-27T17:19:32.535Z,101108.80
2018-08-27T17:22:00.200Z,101115.55
2018-08-27T17:24:28.163Z,101112.75
2018-08-27T17:26:56.049Z,101119.12
2018-08-27T17:29:24.009Z,101117.17
2018-08-27T17:31:52.036Z,101125.33
2018-08-27T17:34:19.667Z,101120.00
2018-08-27T17:36:48.130Z,101124.94
2018-08-27T17:39:15.835Z,101125.97
2018-08-27T17:41:43.467Z,101128.47
2018-08-27T17:44:11.484Z,101134.55
2018-08-27T17:46:39.733Z,101140.08
2018-08-27T17:49:07.370Z,101143.92
2018-08-27T17:51:35.155Z,101143.27
2018-08-27T17:54:02.795Z,101153.13
2018-08-27T17:56:30.867Z,101159.92
2018-08-27T17:58:58.566Z,101163.22
2018-08-27T18:01:26.585Z,101168.63
2018-08-27T18:03:54.234Z,101166.14
2018-08-27T18:06:22.171Z,101169.34
2018-08-27T18:08:50.637Z,101181.78
2018-08-27T18:11:18.543Z,101175.77
2018-08-27T18:13:46.404Z,101186.44
2018-08-27T18:16:14.386Z,101184.34
2018-08-27T18:18:42.366Z,101187.94
2018-08-27T18:21:10.046Z,101186.27
2018-08-27T18:23:37.669Z,101190.83
2018-08-27T18:26:05.703Z,101191.78
2018-08-27T18:28:33.449Z,101198.06
2018-08-27T18:31:01.407Z,101200.74
2018-08-27T18:33:29.429Z,101207.86
2018-08-27T18:35:57.099Z,101215.84
2018-08-27T18:38:25.123Z,101220.32
2018-08-27T18:40:52.773Z,101222.12
2018-08-27T18:43:20.895Z,101223.08
2018-08-27T18:45:48.504Z,101227.12
2018-08-27T18:48:16.142Z,101235.55
2018-08-27T18:50:43.851Z,101238.66
2018-08-27T18:53:11.456Z,101244.85
2018-08-27T18:55:39.750Z,101243.64
2018-08-27T18:58:07.440Z,101249.40
2018-08-27T19:00:35.137Z,101246.84
2018-08-27T19:03:03.148Z,101253.03
2018-08-27T19:05:31.178Z,101250.91
2018-08-27T19:07:59.093Z,101260.13
2018-08-27T19:10:26.925Z,101264.56
2018-08-27T19:12:54.633Z,101268.08
2018-08-27T19:15:22.473Z,101271.19
2018-08-27T19:17:50.538Z,101275.19
2018-08-27T19:20:18.150Z,101275.19
2018-08-27T19:22:45.844Z,101273.83
2018-08-27T19:25:13.555Z,101285.25
2018-08-27T19:27:41.882Z,101285.25
2018-08-27T19:30:09.615Z,101287.05
2018-08-27T19:32:37.348Z,101287.92
2018-08-27T19:35:05.636Z,101295.83
2018-08-27T19:37:33.338Z,101299.38
2018-08-27T19:40:02.201Z,101302.45
2018-08-27T19:42:30.639Z,101298.47
2018-08-27T19:44:58.537Z,101304.17
2018-08-27T19:47:26.510Z,101305.05
2018-08-27T19:49:54.525Z,101309.92
2018-08-27T19:52:22.525Z,101309.52
2018-08-27T19:54:50.349Z,101311.28
2018-08-27T19:57:18.346Z,101316.55
2018-08-27T19:59:46.518Z,101320.53
2018-08-27T20:02:14.381Z,101315.34
2018-08-27T20:04:42.375Z,101329.43
2018-08-27T20:07:10.360Z,101328.22
2018-08-27T20:09:38.276Z,101320.79
2018-08-27T20:12:06.080Z,101324.78
2018-08-27T20:14:33.930Z,101336.70
2018-08-27T20:17:01.696Z,101337.22
2018-08-27T20:19:31.244Z,101331.58
2018-08-27T20:22:10.590Z,101331.58
2018-08-27T20:24:38.666Z,101338.16
2018-08-27T20:27:06.539Z,101340.83
2018-08-27T20:29:34.722Z,101342.66
2018-08-27T20:32:02.547Z,101344.02
2018-08-27T20:34:31.030Z,101345.84
2018-08-27T20:36:58.821Z,101354.62
2018-08-27T20:39:26.772Z,101349.83
2018-08-27T20:41:54.480Z,101355.53
2018-08-27T20:44:23.373Z,101360.83
2018-08-27T20:46:51.141Z,101355.16
2018-08-27T20:49:18.931Z,101359.11
2018-08-27T20:51:47.433Z,101363.09
2018-08-27T20:54:15.206Z,101365.77
2018-08-27T20:56:43.042Z,101369.72
2018-08-27T20:59:10.833Z,101365.77
2018-08-27T21:01:38.817Z,101367.08
2018-08-27T21:04:06.767Z,101367.55
2018-08-27T21:06:34.804Z,101364.48
2018-08-27T21:09:02.820Z,101368.06
2018-08-27T21:11:30.692Z,101361.14
2018-08-27T21:14:10.106Z,101372.08
2018-08-27T21:16:38.169Z,101375.63
2018-08-27T21:19:06.034Z,101381.80
2018-08-27T21:21:34.149Z,101387.54
2018-08-27T21:24:01.834Z,101389.33
2018-08-27T21:26:29.669Z,101391.05
2018-08-27T21:28:57.440Z,101385.78
2018-08-27T21:31:25.267Z,101388.89
2018-08-27T21:33:53.062Z,101388.01
2018-08-27T21:36:20.905Z,101396.38
2018-08-27T21:38:49.546Z,101395.50
2018-08-27T21:41:17.315Z,101388.95
2018-08-27T21:43:45.710Z,101390.71
2018-08-27T21:46:13.578Z,101393.84
2018-08-27T21:48:41.266Z,101393.84
2018-08-27T21:51:09.450Z,101394.79
2018-08-27T21:53:37.239Z,101393.91
2018-08-27T21:56:05.188Z,101388.64
2018-08-27T21:58:32.990Z,101401.81
2018-08-27T22:01:01.350Z,101396.55
2018-08-27T22:03:34.658Z,101384.11
2018-08-27T22:06:02.658Z,101407.98
2018-08-27T22:08:30.390Z,101412.44
2018-08-27T22:10:59.157Z,101412.00
2018-08-27T22:13:26.997Z,101411.59
2018-08-27T22:15:54.826Z,101412.47
2018-08-27T22:18:22.754Z,101409.43
2018-08-27T22:20:50.725Z,101420.40
2018-08-27T22:23:18.623Z,101423.03
2018-08-27T22:25:46.628Z,101426.10
2018-08-27T22:28:15.402Z,101435.79
2018-08-27T22:30:43.218Z,101427.45
2018-08-27T22:33:11.021Z,101427.05
2018-08-27T22:35:38.867Z,101429.27
2018-08-27T22:38:06.703Z,101425.82
2018-08-27T22:40:35.294Z,101428.45
2018-08-27T22:43:03.319Z,101443.37
2018-08-27T22:45:31.070Z,101437.26
2018-08-27T22:47:58.878Z,101438.57
2018-08-27T22:50:26.664Z,101445.22
2018-08-27T22:52:54.498Z,101446.53
2018-08-27T22:55:22.375Z,101448.72
2018-08-27T22:57:50.435Z,101451.83
2018-08-27T23:00:22.893Z,101457.13
2018-08-27T23:02:56.795Z,101443.55
2018-08-27T23:05:24.597Z,101447.94
2018-08-27T23:07:52.594Z,101456.70
2018-08-27T23:10:20.358Z,101463.73
2018-08-27T23:12:48.180Z,101463.31
2018-08-27T23:15:16.116Z,101469.02
2018-08-27T23:17:44.124Z,101473.44
2018-08-27T23:20:11.877Z,101472.12
2018-08-27T23:22:40.752Z,101472.56
2018-08-27T23:25:08.502Z,101474.31
2018-08-27T23:27:36.551Z,101471.27
2018-08-27T23:30:04.256Z,101482.30
2018-08-27T23:32:31.982Z,101483.61
2018-08-27T23:34:59.842Z,101485.36
2018-08-27T23:37:27.553Z,101485.39
2018-08-27T23:39:55.924Z,101481.42
2018-08-27T23:42:23.744Z,101485.84
2018-08-27T23:44:51.498Z,101483.20
2018-08-27T23:47:19.827Z,101482.35
2018-08-27T23:49:48.088Z,101484.58
2018-08-27T23:52:16.349Z,101487.20
2018-08-27T23:54:44.367Z,101478.00
2018-08-27T23:57:12.600Z,101480.63
2018-08-27T23:59:40.882Z,101482.96
